Time;durP1;ratioP1;P1;durP2;ratioP2;P2;SDS_P1;SDS_P2;PMS_P1;PMS_P2;Temp;Humidity;BMP_temperature;BMP_pressure;BME280_temperature;BME280_humidity;BME280_pressure;Samples;Min_cycle;Max_cycle;Signal;HPM_P1;HPM_P2
2021/12/24 00:01:27;;;;;;;47.40;30.77;;;77.10;2227.20;;;;;;4901209;29;20449;-80
2021/12/24 00:03:54;;;;;;;45.45;27.98;;;77.20;2227.20;;;;;;4906727;29;20060;-79
2021/12/24 00:06:22;;;;;;;43.05;28.45;;;77.20;2227.20;;;;;;4896900;29;20039;-79
2021/12/24 00:08:48;;;;;;;46.80;27.45;;;77.40;2227.20;;;;;;4892529;29;20044;-79
2021/12/24 00:11:16;;;;;;;46.25;28.45;;;77.30;2227.20;;;;;;4891332;29;20076;-77
2021/12/24 00:13:44;;;;;;;47.55;29.20;;;77.30;2227.20;;;;;;4883167;29;20041;-77
2021/12/24 00:16:25;;;;;;;42.42;27.05;;;77.40;2227.20;;;;;;4885074;29;20037;-79
2021/12/24 00:35:17;;;;;;;52.22;31.73;;;77.40;2227.20;;;;;;4917729;29;20039;-80
2021/12/24 00:37:47;;;;;;;43.40;27.85;;;77.40;2227.20;;;;;;4916046;29;20040;-79
2021/12/24 00:40:29;;;;;;;46.40;29.48;;;77.50;2227.20;;;;;;4919730;29;20040;-80
2021/12/24 00:43:21;;;;;;;45.55;27.00;;;77.50;2227.20;;;;;;4832324;29;20046;-80
2021/12/24 00:45:51;;;;;;;39.30;25.33;;;77.50;2227.20;;;;;;4832110;29;20045;-79
2021/12/24 00:48:31;;;;;;;45.92;28.13;;;77.50;2227.20;;;;;;4853709;29;20071;-80
2021/12/24 00:56:10;;;;;;;41.00;28.38;;;77.60;2227.20;;;;;;4828131;29;20151;-79
2021/12/24 00:58:37;;;;;;;48.95;29.27;;;77.60;2227.20;;;;;;4830103;29;20151;-79
2021/12/24 01:01:06;;;;;;;41.38;28.05;;;77.60;2227.20;;;;;;4844545;29;20583;-80
2021/12/24 01:03:38;;;;;;;40.83;27.42;;;77.70;2227.20;;;;;;4841607;29;20038;-79
2021/12/24 01:06:04;;;;;;;49.60;29.85;;;77.70;2227.20;;;;;;4823464;29;20034;-80
2021/12/24 01:08:43;;;;;;;42.92;29.85;;;77.70;2227.20;;;;;;4846769;29;20039;-80
2021/12/24 01:11:19;;;;;;;44.55;29.65;;;77.70;2227.20;;;;;;4848139;29;20034;-80
2021/12/24 01:13:45;;;;;;;49.35;29.45;;;77.70;2227.20;;;;;;4825734;29;20045;-80
2021/12/24 01:16:42;;;;;;;50.00;29.00;;;77.70;2227.20;;;;;;4841576;29;20094;-80
2021/12/24 01:19:19;;;;;;;47.40;29.15;;;77.70;2227.20;;;;;;4830789;29;20064;-80
2021/12/24 01:22:19;;;;;;;48.30;28.48;;;77.70;2227.20;;;;;;4882057;29;20049;-80
2021/12/24 01:24:50;;;;;;;48.38;29.83;;;77.70;2227.20;;;;;;4880441;29;20041;-79
2021/12/24 01:27:41;;;;;;;45.30;28.90;;;77.70;2227.20;;;;;;4880309;29;20101;-80
2021/12/24 01:38:57;;;;;;;46.72;28.95;;;77.70;2227.20;;;;;;4903343;29;20040;-80
2021/12/24 01:44:08;;;;;;;44.17;27.75;;;77.70;2227.20;;;;;;4906906;29;20039;-79
2021/12/24 01:46:36;;;;;;;45.45;30.30;;;102.40;2227.20;;;;;;4893998;29;20037;-80
2021/12/24 01:49:45;;;;;;;42.60;28.40;;;102.40;2227.20;;;;;;4917662;29;20028;-80
2021/12/24 01:52:55;;;;;;;48.15;28.77;;;102.40;2227.20;;;;;;4882316;29;20088;-80
2021/12/24 01:55:57;;;;;;;50.90;29.70;;;102.40;2227.20;;;;;;4921034;29;20076;-81
2021/12/24 01:58:52;;;;;;;46.42;29.95;;;102.40;2227.20;;;;;;4879414;29;20043;-80
2021/12/24 02:01:19;;;;;;;45.33;30.25;;;102.40;2227.20;;;;;;4915864;29;20033;-80
2021/12/24 02:03:46;;;;;;;47.40;27.98;;;102.40;2227.20;;;;;;4885128;29;20055;-80
2021/12/24 02:06:30;;;;;;;47.45;28.48;;;102.50;2227.20;;;;;;4903783;29;20044;-80
2021/12/24 02:09:30;;;;;;;47.38;29.75;;;102.40;2227.20;;;;;;4896349;29;20044;-80
2021/12/24 02:12:05;;;;;;;43.15;27.75;;;102.50;2227.20;;;;;;4898023;29;20036;-80
2021/12/24 02:14:35;;;;;;;46.08;27.52;;;102.50;2227.20;;;;;;4881664;29;20025;-79
2021/12/24 02:30:42;;;;;;;45.03;26.67;;;102.50;2227.20;;;;;;4870923;29;20070;-79
2021/12/24 02:33:10;;;;;;;44.20;30.42;;;102.60;2227.20;;;;;;4884568;29;20040;-79
2021/12/24 02:35:36;;;;;;;40.83;28.70;;;102.60;2227.20;;;;;;4881190;29;20064;-79
2021/12/24 02:38:04;;;;;;;47.40;29.05;;;102.50;2227.20;;;;;;4880961;29;20497;-79
2021/12/24 02:40:30;;;;;;;46.00;29.33;;;102.50;2227.20;;;;;;4880750;29;20084;-79
2021/12/24 02:42:57;;;;;;;51.80;28.45;;;102.50;2227.20;;;;;;4866976;29;20033;-79
2021/12/24 02:45:26;;;;;;;49.25;30.92;;;102.50;2227.20;;;;;;4880191;29;20048;-79
2021/12/24 02:48:14;;;;;;;49.40;28.17;;;102.50;2227.20;;;;;;4881960;29;20067;-79
2021/12/24 02:56:13;;;;;;;44.33;28.77;;;102.50;2227.20;;;;;;4894565;29;20104;-80
2021/12/24 02:58:46;;;;;;;44.47;28.80;;;102.50;2227.20;;;;;;4893264;29;20041;-80
2021/12/24 03:01:17;;;;;;;46.55;28.90;;;102.50;2227.20;;;;;;4891729;29;20037;-79
2021/12/24 03:03:48;;;;;;;43.15;26.67;;;102.60;2227.20;;;;;;4890585;29;20519;-79
2021/12/24 03:06:22;;;;;;;45.63;29.80;;;102.50;2227.20;;;;;;4887564;29;20064;-79
2021/12/24 03:08:48;;;;;;;49.35;28.85;;;102.60;2227.20;;;;;;4884848;29;20042;-79
2021/12/24 03:11:14;;;;;;;43.90;27.45;;;102.60;2227.20;;;;;;4886247;29;20104;-79
2021/12/24 03:13:42;;;;;;;42.63;27.13;;;102.60;2227.20;;;;;;4887534;29;20044;-79
2021/12/24 03:16:09;;;;;;;48.20;31.23;;;102.60;2227.20;;;;;;4890712;29;20050;-80
2021/12/24 03:18:38;;;;;;;45.55;27.65;;;102.60;2227.20;;;;;;4894980;29;20033;-80
2021/12/24 03:21:13;;;;;;;42.05;28.40;;;102.60;2227.20;;;;;;4892420;29;20041;-79
2021/12/24 03:26:25;;;;;;;;;;;102.60;2227.20;;;;;;4867932;29;20041;-79
2021/12/24 03:28:51;;;;;;;46.23;27.20;;;102.70;2227.20;;;;;;4851711;29;19908;-79
2021/12/24 03:31:17;;;;;;;44.17;27.80;;;102.60;2227.20;;;;;;4866439;29;20042;-78
2021/12/24 03:33:43;;;;;;;42.92;27.75;;;102.60;2227.20;;;;;;4860132;29;20045;-79
2021/12/24 03:36:09;;;;;;;42.03;27.50;;;102.70;2227.20;;;;;;4874299;29;20037;-79
2021/12/24 03:38:37;;;;;;;44.97;28.33;;;102.70;2227.20;;;;;;4883800;29;20037;-80
2021/12/24 03:41:34;;;;;;;44.28;27.63;;;102.80;2227.20;;;;;;4886443;29;20037;-79
2021/12/24 03:44:11;;;;;;;44.90;25.45;;;102.80;2227.20;;;;;;4864709;29;20029;-80
2021/12/24 03:49:18;;;;;;;47.70;29.30;;;102.80;2227.20;;;;;;4858401;29;20038;-79
2021/12/24 03:52:00;;;;;;;44.97;29.08;;;102.80;2227.20;;;;;;4833640;29;20048;-80
2021/12/24 03:57:10;;;;;;;44.60;28.10;;;102.80;2227.20;;;;;;4846199;29;20061;-78
2021/12/24 03:59:36;;;;;;;44.08;26.52;;;102.80;2227.20;;;;;;4834801;29;20038;-79
2021/12/24 04:02:02;;;;;;;39.00;25.48;;;102.80;2227.20;;;;;;4816970;29;20065;-79
2021/12/24 04:04:32;;;;;;;42.00;25.88;;;102.80;2227.20;;;;;;4868478;29;20049;-79
2021/12/24 04:06:59;;;;;;;37.53;26.05;;;102.80;2227.20;;;;;;4865998;29;20410;-79
2021/12/24 04:09:27;;;;;;;41.67;26.13;;;102.90;2227.20;;;;;;4854203;29;20558;-80
2021/12/24 04:11:54;;;;;;;39.75;24.73;;;102.90;2227.20;;;;;;4872362;29;20430;-79
2021/12/24 04:14:19;;;;;;;37.72;25.20;;;102.90;2227.20;;;;;;4867023;29;20135;-79
2021/12/24 04:16:45;;;;;;;45.05;26.15;;;102.90;2227.20;;;;;;4907633;29;20050;-79
2021/12/24 04:25:20;;;;;;;37.13;24.83;;;102.80;2227.20;;;;;;4919553;29;20039;-80
2021/12/24 04:27:56;;;;;;;42.22;25.02;;;102.80;2227.20;;;;;;4923375;29;20045;-80
2021/12/24 04:30:34;;;;;;;37.95;23.70;;;102.80;2227.20;;;;;;4919456;29;20040;-79
2021/12/24 04:33:11;;;;;;;39.83;24.98;;;102.80;2227.20;;;;;;4889488;29;20070;-80
2021/12/24 04:50:57;;;;;;;41.53;24.30;;;102.80;2227.20;;;;;;4849900;29;20088;-80
2021/12/24 05:01:49;;;;;;;33.58;24.52;;;102.90;2227.20;;;;;;4757769;30;20039;-79
2021/12/24 05:05:03;;;;;;;34.70;24.45;;;103.00;2227.20;;;;;;4758566;30;20024;-80
2021/12/24 05:09:57;;;;;;;37.63;23.33;;;103.00;2227.20;;;;;;4737950;30;20521;-79
2021/12/24 05:12:22;;;;;;;37.72;25.08;;;103.00;2227.20;;;;;;4747547;30;20048;-79
2021/12/24 05:14:48;;;;;;;45.40;25.75;;;103.00;2227.20;;;;;;4773049;30;20051;-78
2021/12/24 05:17:25;;;;;;;30.80;20.33;;;103.00;2227.20;;;;;;4756480;30;20504;-78
2021/12/24 05:22:35;;;;;;;40.95;25.13;;;103.00;2227.20;;;;;;4771543;30;20050;-77
2021/12/24 05:25:01;;;;;;;43.70;27.52;;;103.00;2227.20;;;;;;4773603;30;20439;-79
2021/12/24 05:27:28;;;;;;;47.67;30.38;;;103.00;2227.20;;;;;;4780935;29;20095;-79
2021/12/24 05:29:54;;;;;;;44.28;29.50;;;103.10;2227.20;;;;;;4810841;29;20092;-79
2021/12/24 05:32:20;;;;;;;46.33;29.70;;;103.10;2227.20;;;;;;4810711;29;20184;-78
2021/12/24 05:34:46;;;;;;;42.78;26.95;;;103.10;2227.20;;;;;;4808723;29;20476;-78
2021/12/24 05:37:23;;;;;;;38.50;26.00;;;103.10;2227.20;;;;;;4824065;29;20042;-80
2021/12/24 05:44:35;;;;;;;34.50;24.13;;;103.20;2227.20;;;;;;4830480;29;20045;-80
2021/12/24 05:48:02;;;;;;;44.75;27.33;;;103.20;2227.20;;;;;;5014058;23;20024;-80
2021/12/24 05:50:52;;;;;;;40.92;26.63;;;103.20;2227.20;;;;;;5053892;23;20038;-79
2021/12/24 05:53:19;;;;;;;46.22;32.20;;;103.20;2227.20;;;;;;4936431;29;20122;-79
2021/12/24 05:55:45;;;;;;;51.78;34.13;;;103.20;2227.20;;;;;;4936634;29;20027;-79
2021/12/24 05:58:22;;;;;;;52.30;37.10;;;103.20;2227.20;;;;;;4955535;29;20044;-79
2021/12/24 06:00:49;;;;;;;52.15;34.60;;;103.30;2227.20;;;;;;4939968;29;20039;-79
2021/12/24 06:03:19;;;;;;;46.05;30.75;;;103.30;2227.20;;;;;;4940104;29;20035;-79
2021/12/24 06:13:36;;;;;;;34.47;24.20;;;103.30;2227.20;;;;;;4864805;27;20090;-78
2021/12/24 06:16:05;;;;;;;40.20;24.73;;;103.30;2227.20;;;;;;4879137;29;20042;-78
2021/12/24 06:18:32;;;;;;;43.33;26.75;;;128.20;2252.80;;;;;;4879479;29;20061;-78
2021/12/24 06:21:03;;;;;;;41.03;25.92;;;128.00;2252.80;;;;;;4879447;29;20079;-78
2021/12/24 06:23:38;;;;;;;42.88;25.23;;;128.00;2252.80;;;;;;4879608;29;20054;-78
2021/12/24 06:27:10;;;;;;;41.28;25.20;;;128.00;2252.80;;;;;;4863791;29;20030;-80
2021/12/24 06:29:57;;;;;;;35.08;24.00;;;128.10;2252.80;;;;;;4788632;29;20039;-80
2021/12/24 06:32:24;;;;;;;38.97;25.85;;;128.10;2252.80;;;;;;4787370;30;20040;-80
2021/12/24 06:35:18;;;;;;;39.67;25.88;;;128.10;2252.80;;;;;;4788889;30;20028;-80
2021/12/24 06:38:34;;;;;;;37.00;25.45;;;128.10;2252.80;;;;;;4762809;30;20032;-80
2021/12/24 06:41:47;;;;;;;39.55;25.63;;;128.10;2252.80;;;;;;5418745;23;20036;-82
2021/12/24 06:48:08;;;;;;;42.03;25.10;;;128.10;2252.80;;;;;;4884608;29;20021;-79
2021/12/24 06:51:32;;;;;;;39.00;26.33;;;128.20;2252.80;;;;;;4880183;29;20029;-79
2021/12/24 06:54:19;;;;;;;37.70;25.27;;;128.20;2252.80;;;;;;4804479;29;20070;-80
2021/12/24 06:57:12;;;;;;;36.83;25.80;;;128.30;2252.80;;;;;;4807499;29;20038;-80
2021/12/24 07:02:28;;;;;;;39.97;24.42;;;128.50;2252.80;;;;;;5366372;23;20056;-78
2021/12/24 07:04:57;;;;;;;50.78;29.42;;;128.60;2252.80;;;;;;4942633;29;20039;-80
2021/12/24 07:56:09;;;;;;;33.30;23.77;;;179.80;2252.80;;;;;;4900420;29;20053;-80
2021/12/24 07:58:36;;;;;;;37.95;25.48;;;180.00;2252.80;;;;;;4877452;29;20049;-80
2021/12/24 08:01:02;;;;;;;48.85;26.80;;;204.80;2252.80;;;;;;4878256;29;20061;-78
2021/12/24 08:04:16;;;;;;;41.85;24.45;;;204.90;2252.80;;;;;;4839719;29;20098;-79
2021/12/24 08:10:14;;;;;;;43.03;24.45;;;205.20;2252.80;;;;;;4810640;29;20116;-83
2021/12/24 08:12:49;;;;;;;31.33;21.40;;;205.20;2252.80;;;;;;4828401;29;20019;-83
2021/12/24 08:15:17;;;;;;;38.65;23.35;;;205.30;2252.80;;;;;;4826407;29;20038;-81
2021/12/24 08:17:50;;;;;;;35.40;22.77;;;205.30;2252.80;;;;;;4817833;29;20063;-80
2021/12/24 08:20:22;;;;;;;37.45;21.23;;;205.40;2252.80;;;;;;4825542;29;20125;-80
2021/12/24 08:22:50;;;;;;;35.03;22.98;;;205.50;2252.80;;;;;;4813754;29;20042;-82
2021/12/24 08:25:17;;;;;;;33.75;21.92;;;205.60;2252.80;;;;;;4812665;29;20449;-83
2021/12/24 08:27:43;;;;;;;33.75;22.38;;;205.70;2252.80;;;;;;4811313;29;20038;-83
2021/12/24 08:30:09;;;;;;;34.67;23.33;;;205.70;2252.80;;;;;;4810360;29;20459;-81
2021/12/24 08:32:39;;;;;;;31.52;21.40;;;230.40;2252.80;;;;;;4809899;29;20083;-82
2021/12/24 08:35:07;;;;;;;36.28;19.98;;;230.50;2252.80;;;;;;4808796;29;20673;-82
2021/12/24 08:37:33;;;;;;;32.97;21.05;;;230.50;2252.80;;;;;;4832077;29;20034;-84
2021/12/24 08:39:58;;;;;;;33.05;20.95;;;230.50;2252.80;;;;;;4841842;29;20041;-84
2021/12/24 08:42:24;;;;;;;28.63;19.17;;;230.60;2252.80;;;;;;4865326;29;20041;-83
2021/12/24 08:44:51;;;;;;;32.47;20.40;;;230.70;2252.80;;;;;;4856969;29;20041;-86
2021/12/24 08:47:16;;;;;;;31.92;21.50;;;230.80;2252.80;;;;;;4870814;29;20504;-86
2021/12/24 08:49:42;;;;;;;29.33;19.17;;;230.90;2252.80;;;;;;4880095;29;20037;-86
2021/12/24 08:52:08;;;;;;;33.65;20.17;;;230.80;2252.80;;;;;;4864480;29;20552;-87
2021/12/24 08:54:34;;;;;;;32.22;21.63;;;230.80;2252.80;;;;;;4856648;29;20109;-84
2021/12/24 08:57:00;;;;;;;31.70;19.80;;;230.90;2252.80;;;;;;4861400;29;20101;-84
2021/12/24 08:59:26;;;;;;;29.88;19.58;;;231.00;2252.80;;;;;;4874329;29;20049;-84
2021/12/24 09:01:53;;;;;;;32.97;21.20;;;231.10;2252.80;;;;;;4870997;29;20045;-85
2021/12/24 09:04:19;;;;;;;33.33;21.55;;;231.20;2252.80;;;;;;4854011;29;20099;-86
2021/12/24 09:06:45;;;;;;;33.03;21.48;;;231.20;2252.80;;;;;;4870535;29;20045;-86
2021/12/24 09:09:11;;;;;;;35.05;21.17;;;231.30;2252.80;;;;;;4879619;29;20041;-86
2021/12/24 09:11:39;;;;;;;39.65;22.17;;;256.10;2252.80;;;;;;4847349;29;20124;-87
2021/12/24 09:14:05;;;;;;;36.95;22.27;;;256.00;2252.80;;;;;;4846037;29;20477;-87
2021/12/24 09:16:34;;;;;;;30.83;19.08;;;256.10;2252.80;;;;;;4845945;29;20132;-89
2021/12/24 09:19:04;;;;;;;30.55;20.77;;;256.30;2252.80;;;;;;4857026;29;20042;-88
2021/12/24 09:21:30;;;;;;;29.90;19.73;;;256.30;2252.80;;;;;;4861002;29;20446;-86
2021/12/24 09:23:58;;;;;;;34.30;20.20;;;256.60;2252.80;;;;;;4868932;29;20065;-86
2021/12/24 09:26:31;;;;;;;31.85;19.23;;;281.70;2278.40;;;;;;4867450;29;20396;-89
2021/12/24 09:28:56;;;;;;;30.08;19.25;;;282.20;2278.40;;;;;;4882272;29;20097;-85
2021/12/24 09:31:24;;;;;;;31.50;19.63;;;282.40;2278.40;;;;;;4859182;29;20041;-85
2021/12/24 09:33:50;;;;;;;27.20;18.00;;;282.50;2278.40;;;;;;4855871;29;20037;-85
2021/12/24 09:36:23;;;;;;;28.55;17.73;;;282.50;2278.40;;;;;;4860626;29;20085;-84
2021/12/24 09:38:49;;;;;;;27.05;18.58;;;307.30;2304.00;;;;;;4850607;29;20021;-84
2021/12/24 09:41:15;;;;;;;28.85;18.75;;;307.90;2304.00;;;;;;4872365;29;20113;-84
2021/12/24 09:43:41;;;;;;;27.02;20.50;;;332.80;2329.60;;;;;;4872916;29;20133;-83
2021/12/24 09:46:07;;;;;;;28.63;17.60;;;333.50;2329.60;;;;;;4854114;29;20033;-80
2021/12/24 09:48:32;;;;;;;36.33;16.50;;;358.70;2329.60;;;;;;4849864;29;20033;-82
2021/12/24 09:50:58;;;;;;;34.92;18.50;;;359.20;2329.60;;;;;;4853994;29;20038;-81
2021/12/24 09:53:24;;;;;;;23.00;14.85;;;359.10;2329.60;;;;;;4866641;29;20360;-82
2021/12/24 09:55:50;;;;;;;34.90;20.65;;;358.80;2329.60;;;;;;4859692;29;20049;-82
2021/12/24 09:58:16;;;;;;;24.63;16.98;;;359.10;2329.60;;;;;;4886799;29;20177;-82
2021/12/24 10:00:41;;;;;;;24.35;16.50;;;359.30;2329.60;;;;;;4866289;29;20060;-81
2021/12/24 10:03:07;;;;;;;19.23;13.98;;;384.50;2329.60;;;;;;4870273;29;20470;-81
2021/12/24 10:05:39;;;;;;;31.30;18.52;;;384.80;2329.60;;;;;;4865694;29;20485;-81
2021/12/24 10:08:26;;;;;;;20.48;12.45;;;384.80;2329.60;;;;;;4870400;29;20097;-79
2021/12/24 10:11:02;;;;;;;26.23;13.85;;;384.60;2329.60;;;;;;4870745;29;20045;-82
2021/12/24 10:13:33;;;;;;;28.55;17.90;;;409.60;2355.20;;;;;;4867579;29;20042;-82
2021/12/24 10:16:00;;;;;;;27.48;18.75;;;410.40;2355.20;;;;;;4884011;29;20048;-82
2021/12/24 10:18:27;;;;;;;27.48;17.20;;;435.60;2355.20;;;;;;4867027;29;20768;-84
2021/12/24 10:21:06;;;;;;;24.65;16.60;;;410.40;2355.20;;;;;;4869213;29;20507;-83
2021/12/24 10:23:54;;;;;;;23.23;14.80;;;410.50;2355.20;;;;;;4863806;29;20124;-84
2021/12/24 10:26:22;;;;;;;24.50;16.20;;;435.20;2355.20;;;;;;4869661;29;20059;-84
2021/12/24 10:29:09;;;;;;;25.80;15.35;;;435.70;2355.20;;;;;;4864638;29;20033;-84
2021/12/24 10:31:39;;;;;;;24.50;17.05;;;435.70;2355.20;;;;;;4870734;29;20029;-85
2021/12/24 10:34:11;;;;;;;27.65;17.75;;;435.60;2355.20;;;;;;4868991;29;20043;-84
2021/12/24 10:36:51;;;;;;;23.50;15.93;;;435.90;2355.20;;;;;;4875223;29;20037;-83
2021/12/24 10:39:18;;;;;;;31.95;20.25;;;460.80;2201.60;;;;;;4867588;29;20055;-83
2021/12/24 10:41:47;;;;;;;50.80;29.80;;;435.70;2355.20;;;;;;4864936;29;20033;-81
2021/12/24 10:44:26;;;;;;;17.83;11.13;;;435.20;2355.20;;;;;;4869210;29;21400;-78
2021/12/24 10:47:06;;;;;;;19.17;11.52;;;435.40;2355.20;;;;;;4871221;29;20045;-78
2021/12/24 10:50:06;;;;;;;18.70;11.10;;;435.60;2355.20;;;;;;4865575;29;21458;-81
2021/12/24 10:52:43;;;;;;;35.33;20.40;;;435.50;2355.20;;;;;;4869703;29;20101;-82
2021/12/24 10:55:15;;;;;;;22.33;10.00;;;435.30;2355.20;;;;;;4881087;29;20041;-82
2021/12/24 10:57:44;;;;;;;20.30;10.32;;;435.40;2355.20;;;;;;4891566;29;20052;-82
2021/12/24 11:00:18;;;;;;;28.52;18.48;;;435.40;2355.20;;;;;;4870211;29;20097;-82
2021/12/24 11:02:49;;;;;;;38.85;22.88;;;410.50;2355.20;;;;;;4868995;29;20041;-83
2021/12/24 11:05:38;;;;;;;23.10;13.55;;;435.20;2355.20;;;;;;4886978;29;20059;-82
2021/12/24 11:08:07;;;;;;;33.22;19.60;;;410.30;2355.20;;;;;;4889030;29;20036;-82
2021/12/24 11:10:37;;;;;;;15.32;8.65;;;435.40;2355.20;;;;;;4889165;29;20029;-82
2021/12/24 11:13:19;;;;;;;16.83;10.35;;;435.70;2355.20;;;;;;4890233;29;20037;-85
2021/12/24 11:15:49;;;;;;;11.45;7.90;;;435.70;2355.20;;;;;;4871081;29;20599;-80
2021/12/24 11:18:24;;;;;;;24.75;14.45;;;435.70;2355.20;;;;;;4872915;29;20037;-81
2021/12/24 11:20:52;;;;;;;18.40;11.00;;;435.80;2355.20;;;;;;4880790;29;20048;-84
2021/12/24 11:23:20;;;;;;;9.90;6.93;;;435.70;2355.20;;;;;;4883045;29;20505;-83
2021/12/24 11:25:54;;;;;;;10.02;6.28;;;436.10;2355.20;;;;;;4891509;29;20373;-83
2021/12/24 11:28:25;;;;;;;12.13;6.43;;;435.80;2355.20;;;;;;4873386;29;20051;-84
2021/12/24 11:30:58;;;;;;;16.52;6.63;;;435.70;2355.20;;;;;;4866295;29;20052;-82
2021/12/24 11:33:26;;;;;;;13.35;6.43;;;435.70;2355.20;;;;;;4885852;29;20021;-86
2021/12/24 11:35:53;;;;;;;14.38;5.90;;;435.90;2355.20;;;;;;4885102;29;20052;-87
2021/12/24 11:38:22;;;;;;;11.40;6.50;;;435.70;2355.20;;;;;;4870906;29;20032;-84
2021/12/24 11:40:50;;;;;;;14.05;9.27;;;435.40;2355.20;;;;;;4888358;29;20033;-85
2021/12/24 11:43:18;;;;;;;9.38;4.35;;;435.60;2355.20;;;;;;4870616;29;20044;-86
2021/12/24 11:45:44;;;;;;;15.25;8.63;;;435.70;2355.20;;;;;;4866979;29;20152;-84
2021/12/24 11:48:10;;;;;;;12.52;6.40;;;436.10;2355.20;;;;;;4870584;29;20037;-90
2021/12/24 11:50:37;;;;;;;11.30;6.05;;;435.70;2355.20;;;;;;4871002;29;20798;-85
2021/12/24 11:53:10;;;;;;;11.45;5.55;;;435.60;2355.20;;;;;;4871247;29;20033;-86
2021/12/24 11:55:41;;;;;;;14.68;10.48;;;435.70;2355.20;;;;;;4871063;29;20046;-87
2021/12/24 11:58:14;;;;;;;20.05;9.52;;;435.90;2355.20;;;;;;4874576;29;20043;-88
2021/12/24 12:00:42;;;;;;;12.35;6.13;;;435.60;2355.20;;;;;;4867317;29;20041;-89
2021/12/24 12:03:10;;;;;;;11.15;5.22;;;435.70;2355.20;;;;;;4871308;29;20057;-88
2021/12/24 12:05:39;;;;;;;14.55;6.95;;;435.60;2355.20;;;;;;4868446;29;20041;-87
2021/12/24 12:08:26;;;;;;;18.15;7.90;;;435.80;2355.20;;;;;;4871542;29;20052;-87
2021/12/24 12:11:02;;;;;;;14.20;8.93;;;460.90;2380.80;;;;;;4879236;29;20037;-87
2021/12/24 12:14:01;;;;;;;16.35;9.20;;;435.70;2355.20;;;;;;4868498;29;20110;-89
2021/12/24 12:16:48;;;;;;;11.30;6.82;;;435.40;2355.20;;;;;;4878890;29;20047;-88
2021/12/24 12:19:32;;;;;;;22.95;13.43;;;435.40;2355.20;;;;;;4870458;29;20053;-89
2021/12/24 12:25:10;;;;;;;35.58;17.08;;;435.50;2355.20;;;;;;4874769;29;20043;-89
2021/12/24 12:27:39;;;;;;;19.80;13.00;;;435.50;2355.20;;;;;;4867406;29;20045;-88
2021/12/24 12:30:18;;;;;;;54.20;29.95;;;435.50;2355.20;;;;;;4875003;29;20040;-87
2021/12/24 12:32:45;;;;;;;30.48;17.02;;;435.50;2355.20;;;;;;4869898;29;20492;-87
2021/12/24 12:35:11;;;;;;;17.30;9.00;;;435.20;2355.20;;;;;;4890205;29;20045;-87
2021/12/24 12:37:53;;;;;;;27.55;14.00;;;435.20;2355.20;;;;;;4896486;29;20048;-83
2021/12/24 12:40:18;;;;;;;46.38;25.73;;;435.20;2355.20;;;;;;4884917;29;20069;-89
2021/12/24 12:42:57;;;;;;;43.50;23.95;;;435.20;2355.20;;;;;;4873712;29;20097;-90
2021/12/24 12:45:43;;;;;;;32.70;19.05;;;435.20;2355.20;;;;;;4877714;29;20044;-86
2021/12/24 12:48:16;;;;;;;22.38;14.60;;;410.50;2355.20;;;;;;4878987;29;20048;-90
2021/12/24 12:50:53;;;;;;;35.67;19.75;;;410.50;2355.20;;;;;;4868974;29;20812;-90
2021/12/24 12:53:37;;;;;;;13.00;7.28;;;410.40;2355.20;;;;;;4871402;29;20051;-89
2021/12/24 12:56:27;;;;;;;20.58;10.88;;;410.30;2355.20;;;;;;4874893;29;20056;-89
2021/12/24 12:59:01;;;;;;;18.85;10.30;;;410.50;2355.20;;;;;;4872055;29;20036;-87
2021/12/24 13:01:28;;;;;;;19.67;12.27;;;410.30;2355.20;;;;;;4877215;29;20048;-90
2021/12/24 13:04:00;;;;;;;12.50;11.20;;;410.30;2355.20;;;;;;4879045;29;20122;-90
2021/12/24 13:06:48;;;;;;;9.65;5.50;;;410.20;2355.20;;;;;;4875476;29;20033;-88
2021/12/24 13:09:16;;;;;;;9.95;6.05;;;409.90;2355.20;;;;;;4875180;29;20562;-86
2021/12/24 13:11:49;;;;;;;8.93;4.72;;;409.90;2355.20;;;;;;4880889;29;20096;-83
2021/12/24 13:14:16;;;;;;;11.73;6.80;;;409.80;2355.20;;;;;;4877393;29;20060;-86
2021/12/24 13:16:49;;;;;;;11.63;5.78;;;409.70;2355.20;;;;;;4890739;29;20044;-87
2021/12/24 13:24:36;;;;;;;9.43;5.32;;;409.60;2355.20;;;;;;4885781;29;20099;-87
2021/12/24 13:27:03;;;;;;;11.38;6.32;;;384.90;2329.60;;;;;;4883649;29;20049;-87
2021/12/24 13:29:28;;;;;;;16.20;10.30;;;384.80;2329.60;;;;;;4883418;29;20436;-87
2021/12/24 13:31:56;;;;;;;10.73;6.68;;;384.70;2329.60;;;;;;4900558;29;20032;-87
2021/12/24 13:34:24;;;;;;;14.10;7.88;;;384.60;2329.60;;;;;;4880182;29;20052;-87
2021/12/24 13:36:51;;;;;;;14.23;8.57;;;384.50;2329.60;;;;;;4882800;29;20045;-88
2021/12/24 13:39:23;;;;;;;10.65;7.03;;;384.40;2329.60;;;;;;4882900;29;20088;-88
2021/12/24 13:42:08;;;;;;;9.18;5.95;;;384.30;2329.60;;;;;;4882953;29;20032;-88
2021/12/24 13:44:34;;;;;;;17.02;7.50;;;384.20;2329.60;;;;;;4864676;29;20049;-87
2021/12/24 13:47:05;;;;;;;12.75;8.70;;;384.10;2329.60;;;;;;4881469;29;20389;-87
2021/12/24 13:54:45;;;;;;;10.40;6.80;;;384.00;2329.60;;;;;;4892156;29;20074;-88
2021/12/24 13:57:16;;;;;;;14.32;6.47;;;359.30;2329.60;;;;;;4874547;29;20049;-87
2021/12/24 13:59:42;;;;;;;15.68;6.85;;;359.20;2329.60;;;;;;4871628;29;20037;-88
2021/12/24 14:02:09;;;;;;;10.95;6.63;;;359.20;2329.60;;;;;;4870914;29;20546;-88
2021/12/24 14:04:36;;;;;;;24.95;13.15;;;359.10;2329.60;;;;;;4874980;29;20045;-88
2021/12/24 14:07:02;;;;;;;43.95;22.55;;;359.00;2329.60;;;;;;4879437;29;20132;-87
2021/12/24 14:09:31;;;;;;;16.52;8.93;;;359.00;2329.60;;;;;;4879941;29;20067;-88
2021/12/24 14:11:59;;;;;;;26.15;13.10;;;358.90;2329.60;;;;;;4881274;29;20040;-87
2021/12/24 14:14:51;;;;;;;42.42;20.98;;;358.90;2329.60;;;;;;4880153;29;20032;-88
2021/12/24 14:20:00;;;;;;;27.98;14.88;;;358.80;2329.60;;;;;;4873056;29;20074;-87
2021/12/24 14:22:31;;;;;;;33.53;19.42;;;358.80;2329.60;;;;;;4875738;29;20360;-87
2021/12/24 14:25:08;;;;;;;36.70;20.02;;;358.70;2329.60;;;;;;4873221;29;20523;-90
2021/12/24 14:27:37;;;;;;;41.67;20.50;;;358.70;2329.60;;;;;;4873412;29;20097;-88
2021/12/24 14:30:10;;;;;;;46.80;25.92;;;358.60;2329.60;;;;;;4866293;29;20048;-87
2021/12/24 14:32:40;;;;;;;43.10;22.80;;;358.40;2329.60;;;;;;4868923;29;20084;-85
2021/12/24 14:35:43;;;;;;;40.95;20.35;;;333.70;2329.60;;;;;;4863986;29;20178;-89
2021/12/24 14:38:15;;;;;;;118.30;53.17;;;333.60;2329.60;;;;;;4805670;29;20031;-80
2021/12/24 14:40:41;;;;;;;105.32;50.47;;;333.50;2329.60;;;;;;4803845;29;20086;-83
2021/12/24 14:43:20;;;;;;;81.75;41.05;;;333.40;2329.60;;;;;;4806108;29;20629;-85
2021/12/24 14:45:49;;;;;;;60.05;32.03;;;333.30;2329.60;;;;;;4806268;29;20436;-86
2021/12/24 14:48:29;;;;;;;82.22;44.13;;;333.30;2329.60;;;;;;4805953;29;20030;-84
2021/12/24 14:51:04;;;;;;;48.47;26.05;;;333.30;2329.60;;;;;;4806252;29;20521;-83
2021/12/24 14:53:31;;;;;;;68.63;36.95;;;333.20;2329.60;;;;;;4820449;29;20027;-83
2021/12/24 14:56:04;;;;;;;66.22;39.05;;;333.10;2329.60;;;;;;4800618;29;20204;-83
2021/12/24 14:58:34;;;;;;;45.47;28.13;;;333.00;2329.60;;;;;;4820020;29;20091;-84
2021/12/24 15:01:26;;;;;;;25.10;16.75;;;333.00;2329.60;;;;;;4813372;29;20087;-83
2021/12/24 15:03:56;;;;;;;19.23;12.10;;;332.80;2329.60;;;;;;4819964;29;20058;-82
2021/12/24 15:06:25;;;;;;;20.45;12.45;;;332.80;2329.60;;;;;;4805573;29;20433;-84
2021/12/24 15:08:52;;;;;;;24.45;13.88;;;308.10;2304.00;;;;;;4820411;29;20437;-82
2021/12/24 15:11:21;;;;;;;30.63;15.80;;;308.00;2304.00;;;;;;4805703;29;20550;-83
2021/12/24 15:13:54;;;;;;;38.97;20.40;;;307.90;2304.00;;;;;;4839330;29;20034;-83
2021/12/24 15:16:25;;;;;;;73.93;36.70;;;307.80;2304.00;;;;;;4854051;29;20045;-83
2021/12/24 15:18:52;;;;;;;91.28;42.70;;;307.80;2304.00;;;;;;4855865;29;20040;-83
2021/12/24 15:21:21;;;;;;;149.10;70.30;;;307.70;2304.00;;;;;;4852125;29;20041;-84
2021/12/24 15:23:48;;;;;;;126.47;64.07;;;307.60;2304.00;;;;;;4872802;29;20041;-84
2021/12/24 15:26:15;;;;;;;138.23;69.32;;;307.50;2304.00;;;;;;4849708;29;20421;-84
2021/12/24 15:28:44;;;;;;;114.88;63.75;;;307.40;2304.00;;;;;;4857620;29;20173;-84
2021/12/24 15:31:11;;;;;;;118.18;61.10;;;307.40;2304.00;;;;;;4874541;29;20029;-84
2021/12/24 15:33:38;;;;;;;97.03;53.85;;;307.20;2304.00;;;;;;4872457;29;20033;-86